Nasa Shuttle Landing Facility Airport
KTTS : now visible

Airfield :











YOU CAN JOIN US ON...

 
LOGIN :

Register | Disclaimer

   EN    FR    IT 

 









Legend :    VFR   Marginal VFR   IFR   Intensive IFR   Very Intensive IFR
Visi :
Ceiling :
>= 8 km
>= 3000ft
5 to 8 km
1000 to 3000 ft
1500m to 5 km
500 to 1000 ft
800 to 1500m
200 to 500 ft
< 800m
< 200 ft
Symbols :   Thunderstorms  Fog  Heavy snow  Heavy precipitations  Wind > 20 kt






- Airport Elevation : 10 ft


KTTS - Nasa Shuttle Landing Facility

CURRENT METAR :
  • 180511Z AUTO 02004KT 3/8SM R33/2200V2400FT FG VV000 19/19 A3014 RMK AO2 SLP211 $

EXPIRED METARs :
  • 180456Z AUTO 02003KT 1/2SM R33/2800V3500FT FG VV000 19/18 A3014 RMK AO2 SLP211 T01890182 402760178 $
  • 180436Z AUTO 00000KT 1/2SM R33/2800VP6000FT FG BKN001 19/18 A3014 RMK AO2 VIS 1/2V4 BKN V SCT CIG 000 RWY15/33 SLP211 $
  • 180356Z AUTO 00000KT 10SM CLR 19/18 A3014 RMK AO2 VIS 2 1/4 RWY15 SLP211 T01870180 $
  • 180256Z AUTO 00000KT 10SM CLR 18/18 A3013 RMK AO2 VIS 5/8 RWY15 VIS 3/4 RWY15/33 SLP207 T01830176 52011 $

Expired Forecast.



MET'MAP, your aeronautical weather chart ! - Copyright ORBIFLY December 2007 - Disclaimer

ORBIFLY MET'MAP TEAM :

Programming & Development : Alexandra Zaïnal
Concept & original design : Baudouin d'Aumeries
Assistance for programming : Marc-Olivier Méhu
Technical & hardware support : Manuel Goepfert

Contact : metmap@orbifly.com




SOURCES & CREDITS :

   NOAA       Earth
Advisory